sensor_id;sensor_type;location;lat;lon;timestamp;pressure;altitude;pressure_sealevel;temperature;humidity
70053;BME280;57398;52.032;4.376;2024-03-06T00:01:12;102197.50;;;6.00;100.00
70053;BME280;57398;52.032;4.376;2024-03-06T00:04:01;102197.00;;;5.96;100.00
70053;BME280;57398;52.032;4.376;2024-03-06T00:06:50;102200.38;;;5.97;100.00
70053;BME280;57398;52.032;4.376;2024-03-06T00:09:40;102210.84;;;5.95;100.00
70053;BME280;57398;52.032;4.376;2024-03-06T00:12:30;102212.63;;;5.95;100.00
70053;BME280;57398;52.032;4.376;2024-03-06T00:15:18;102217.09;;;5.93;100.00
70053;BME280;57398;52.032;4.376;2024-03-06T00:18:06;102222.78;;;5.96;100.00
70053;BME280;57398;52.032;4.376;2024-03-06T00:20:54;102230.69;;;5.95;100.00
70053;BME280;57398;52.032;4.376;2024-03-06T00:23:43;102236.63;;;5.95;100.00
70053;BME280;57398;52.032;4.376;2024-03-06T00:26:32;102241.78;;;5.95;100.00
70053;BME280;57398;52.032;4.376;2024-03-06T00:29:22;102239.22;;;5.95;100.00
70053;BME280;57398;52.032;4.376;2024-03-06T00:32:10;102235.94;;;5.93;100.00
70053;BME280;57398;52.032;4.376;2024-03-06T00:34:58;102231.09;;;5.90;100.00
70053;BME280;57398;52.032;4.376;2024-03-06T00:37:46;102227.22;;;5.86;100.00
70053;BME280;57398;52.032;4.376;2024-03-06T00:40:35;102233.69;;;5.90;100.00
70053;BME280;57398;52.032;4.376;2024-03-06T00:43:23;102239.50;;;5.92;100.00
70053;BME280;57398;52.032;4.376;2024-03-06T00:46:13;102234.34;;;5.92;100.00
70053;BME280;57398;52.032;4.376;2024-03-06T00:49:01;102240.06;;;5.96;100.00
70053;BME280;57398;52.032;4.376;2024-03-06T00:51:49;102236.63;;;5.95;100.00
70053;BME280;57398;52.032;4.376;2024-03-06T00:54:37;102240.19;;;5.94;100.00
70053;BME280;57398;52.032;4.376;2024-03-06T00:57:25;102249.53;;;5.95;100.00
70053;BME280;57398;52.032;4.376;2024-03-06T01:00:15;102244.66;;;5.92;100.00
70053;BME280;57398;52.032;4.376;2024-03-06T01:03:04;102248.84;;;5.93;100.00
70053;BME280;57398;52.032;4.376;2024-03-06T01:05:53;102246.97;;;5.95;100.00
70053;BME280;57398;52.032;4.376;2024-03-06T01:08:41;102247.25;;;5.92;100.00
70053;BME280;57398;52.032;4.376;2024-03-06T01:11:30;102243.56;;;5.95;100.00
70053;BME280;57398;52.032;4.376;2024-03-06T01:14:18;102246.97;;;5.95;100.00
70053;BME280;57398;52.032;4.376;2024-03-06T01:17:06;102248.28;;;5.99;100.00
70053;BME280;57398;52.032;4.376;2024-03-06T01:19:56;102252.63;;;5.99;100.00
70053;BME280;57398;52.032;4.376;2024-03-06T01:22:46;102259.56;;;5.98;100.00
70053;BME280;57398;52.032;4.376;2024-03-06T01:25:34;102246.66;;;5.98;100.00
70053;BME280;57398;52.032;4.376;2024-03-06T01:28:22;102252.63;;;5.99;100.00
70053;BME280;57398;52.032;4.376;2024-03-06T01:31:10;102251.00;;;5.98;100.00
70053;BME280;57398;52.032;4.376;2024-03-06T01:33:58;102254.41;;;5.98;100.00
70053;BME280;57398;52.032;4.376;2024-03-06T01:36:47;102253.75;;;5.96;100.00
70053;BME280;57398;52.032;4.376;2024-03-06T01:39:36;102255.66;;;5.94;100.00
70053;BME280;57398;52.032;4.376;2024-03-06T01:42:24;102252.41;;;5.92;100.00
70053;BME280;57398;52.032;4.376;2024-03-06T01:45:12;102254.00;;;5.93;100.00
70053;BME280;57398;52.032;4.376;2024-03-06T01:48:01;102260.50;;;5.97;100.00
70053;BME280;57398;52.032;4.376;2024-03-06T01:50:49;102256.00;;;5.99;100.00
70053;BME280;57398;52.032;4.376;2024-03-06T01:53:39;102258.44;;;6.01;100.00
70053;BME280;57398;52.032;4.376;2024-03-06T01:56:27;102263.59;;;6.01;100.00
70053;BME280;57398;52.032;4.376;2024-03-06T01:59:17;102266.31;;;5.99;100.00
70053;BME280;57398;52.032;4.376;2024-03-06T02:02:21;102266.19;;;6.01;100.00
70053;BME280;57398;52.032;4.376;2024-03-06T02:05:10;102267.78;;;6.02;100.00
70053;BME280;57398;52.032;4.376;2024-03-06T02:07:58;102275.38;;;6.03;100.00
70053;BME280;57398;52.032;4.376;2024-03-06T02:10:48;102269.44;;;6.03;100.00
70053;BME280;57398;52.032;4.376;2024-03-06T02:13:36;102278.09;;;6.02;100.00
70053;BME280;57398;52.032;4.376;2024-03-06T02:16:25;102279.75;;;6.03;100.00
70053;BME280;57398;52.032;4.376;2024-03-06T02:19:13;102272.16;;;6.01;100.00
70053;BME280;57398;52.032;4.376;2024-03-06T02:22:03;102276.00;;;5.97;100.00
70053;BME280;57398;52.032;4.376;2024-03-06T02:24:52;102284.53;;;5.98;100.00
70053;BME280;57398;52.032;4.376;2024-03-06T02:27:40;102287.41;;;5.95;100.00
70053;BME280;57398;52.032;4.376;2024-03-06T02:30:28;102288.38;;;5.94;100.00
70053;BME280;57398;52.032;4.376;2024-03-06T02:33:17;102280.78;;;5.92;100.00
70053;BME280;57398;52.032;4.376;2024-03-06T02:36:06;102282.69;;;5.90;100.00
70053;BME280;57398;52.032;4.376;2024-03-06T02:38:56;102282.19;;;5.86;100.00
70053;BME280;57398;52.032;4.376;2024-03-06T02:41:44;102286.53;;;5.86;100.00
70053;BME280;57398;52.032;4.376;2024-03-06T02:44:32;102281.00;;;5.81;100.00
70053;BME280;57398;52.032;4.376;2024-03-06T02:47:20;102280.53;;;5.77;100.00
70053;BME280;57398;52.032;4.376;2024-03-06T02:50:08;102276.44;;;5.75;100.00
70053;BME280;57398;52.032;4.376;2024-03-06T02:52:58;102271.47;;;5.73;100.00
70053;BME280;57398;52.032;4.376;2024-03-06T02:55:47;102272.84;;;5.67;100.00
70053;BME280;57398;52.032;4.376;2024-03-06T02:58:36;102274.78;;;5.65;100.00
70053;BME280;57398;52.032;4.376;2024-03-06T03:01:24;102270.59;;;5.64;100.00
70053;BME280;57398;52.032;4.376;2024-03-06T03:04:12;102277.06;;;5.69;100.00
70053;BME280;57398;52.032;4.376;2024-03-06T03:07:00;102276.75;;;5.72;100.00
70053;BME280;57398;52.032;4.376;2024-03-06T03:09:49;102283.91;;;5.78;100.00
70053;BME280;57398;52.032;4.376;2024-03-06T03:12:39;102284.03;;;5.76;100.00
70053;BME280;57398;52.032;4.376;2024-03-06T03:15:27;102283.72;;;5.79;100.00
70053;BME280;57398;52.032;4.376;2024-03-06T03:18:15;102279.53;;;5.78;100.00
70053;BME280;57398;52.032;4.376;2024-03-06T03:21:08;102283.72;;;5.79;100.00
70053;BME280;57398;52.032;4.376;2024-03-06T03:23:56;102286.84;;;5.83;100.00
70053;BME280;57398;52.032;4.376;2024-03-06T03:26:45;102284.25;;;5.83;100.00
70053;BME280;57398;52.032;4.376;2024-03-06T03:29:34;102282.47;;;5.83;100.00
70053;BME280;57398;52.032;4.376;2024-03-06T03:32:22;102279.09;;;5.83;100.00
70053;BME280;57398;52.032;4.376;2024-03-06T03:35:10;102276.53;;;5.83;100.00
70053;BME280;57398;52.032;4.376;2024-03-06T03:37:59;102284.91;;;5.85;100.00
70053;BME280;57398;52.032;4.376;2024-03-06T03:40:47;102283.28;;;5.84;100.00
70053;BME280;57398;52.032;4.376;2024-03-06T03:43:35;102280.56;;;5.85;100.00
70053;BME280;57398;52.032;4.376;2024-03-06T03:46:24;102283.94;;;5.86;100.00
70053;BME280;57398;52.032;4.376;2024-03-06T03:49:13;102283.94;;;5.86;100.00
70053;BME280;57398;52.032;4.376;2024-03-06T03:52:01;102287.50;;;5.85;100.00
70053;BME280;57398;52.032;4.376;2024-03-06T03:54:50;102282.34;;;5.85;100.00
70053;BME280;57398;52.032;4.376;2024-03-06T03:57:38;102283.94;;;5.86;100.00
70053;BME280;57398;52.032;4.376;2024-03-06T04:00:26;102284.25;;;5.83;100.00
70053;BME280;57398;52.032;4.376;2024-03-06T04:03:16;102283.59;;;5.81;100.00
70053;BME280;57398;52.032;4.376;2024-03-06T04:06:04;102281.81;;;5.81;100.00
70053;BME280;57398;52.032;4.376;2024-03-06T04:08:53;102283.59;;;5.81;100.00
70053;BME280;57398;52.032;4.376;2024-03-06T04:11:41;102289.72;;;5.80;100.00
70053;BME280;57398;52.032;4.376;2024-03-06T04:14:30;102290.00;;;5.77;100.00
70053;BME280;57398;52.032;4.376;2024-03-06T04:17:18;102298.84;;;5.74;100.00
70053;BME280;57398;52.032;4.376;2024-03-06T04:20:08;102294.31;;;5.68;100.00
70053;BME280;57398;52.032;4.376;2024-03-06T04:22:58;102309.25;;;5.64;100.00
70053;BME280;57398;52.032;4.376;2024-03-06T04:25:47;102301.44;;;5.56;100.00
70053;BME280;57398;52.032;4.376;2024-03-06T04:28:35;102308.97;;;5.50;100.00
70053;BME280;57398;52.032;4.376;2024-03-06T04:31:23;102308.59;;;5.44;100.00
70053;BME280;57398;52.032;4.376;2024-03-06T04:34:11;102310.50;;;5.42;100.00
70053;BME280;57398;52.032;4.376;2024-03-06T04:37:02;102311.78;;;5.38;100.00
70053;BME280;57398;52.032;4.376;2024-03-06T04:39:50;102308.81;;;5.33;100.00
70053;BME280;57398;52.032;4.376;2024-03-06T04:42:38;102315.97;;;5.21;100.00
70053;BME280;57398;52.032;4.376;2024-03-06T04:45:27;102313.31;;;5.13;100.00
70053;BME280;57398;52.032;4.376;2024-03-06T04:48:15;102308.59;;;5.09;100.00
70053;BME280;57398;52.032;4.376;2024-03-06T04:51:04;102317.75;;;4.93;100.00
70053;BME280;57398;52.032;4.376;2024-03-06T04:53:53;102321.44;;;4.91;100.00
70053;BME280;57398;52.032;4.376;2024-03-06T04:56:42;102325.16;;;4.78;100.00
70053;BME280;57398;52.032;4.376;2024-03-06T04:59:30;102331.97;;;4.70;100.00
70053;BME280;57398;52.032;4.376;2024-03-06T05:02:18;102344.19;;;4.58;100.00
70053;BME280;57398;52.032;4.376;2024-03-06T05:05:06;102340.88;;;4.48;100.00
70053;BME280;57398;52.032;4.376;2024-03-06T05:08:12;102342.94;;;4.34;100.00
70053;BME280;57398;52.032;4.376;2024-03-06T05:11:19;102352.69;;;4.31;100.00
70053;BME280;57398;52.032;4.376;2024-03-06T05:14:25;102357.84;;;4.21;100.00
70053;BME280;57398;52.032;4.376;2024-03-06T05:17:30;102363.13;;;4.10;100.00
70053;BME280;57398;52.032;4.376;2024-03-06T05:20:36;102367.75;;;4.06;100.00
70053;BME280;57398;52.032;4.376;2024-03-06T05:23:42;102371.69;;;4.01;100.00
70053;BME280;57398;52.032;4.376;2024-03-06T05:26:49;102371.41;;;3.94;100.00
70053;BME280;57398;52.032;4.376;2024-03-06T05:29:55;102368.72;;;3.95;100.00
70053;BME280;57398;52.032;4.376;2024-03-06T05:33:01;102360.31;;;3.93;100.00
70053;BME280;57398;52.032;4.376;2024-03-06T05:36:07;102369.13;;;3.91;100.00
70053;BME280;57398;52.032;4.376;2024-03-06T05:39:12;102366.03;;;3.87;100.00
70053;BME280;57398;52.032;4.376;2024-03-06T05:42:20;102372.09;;;3.76;100.00
70053;BME280;57398;52.032;4.376;2024-03-06T05:45:25;102380.34;;;3.70;100.00
70053;BME280;57398;52.032;4.376;2024-03-06T05:48:31;102384.25;;;3.55;100.00
70053;BME280;57398;52.032;4.376;2024-03-06T05:51:37;102385.03;;;3.46;100.00
70053;BME280;57398;52.032;4.376;2024-03-06T05:54:42;102392.63;;;3.38;100.00
70053;BME280;57398;52.032;4.376;2024-03-06T05:57:49;102394.91;;;3.31;100.00
70053;BME280;57398;52.032;4.376;2024-03-06T06:01:00;102393.34;;;3.09;100.00
70053;BME280;57398;52.032;4.376;2024-03-06T06:03:50;102401.31;;;3.06;100.00
70053;BME280;57398;52.032;4.376;2024-03-06T06:06:38;102410.09;;;3.03;100.00
70053;BME280;57398;52.032;4.376;2024-03-06T06:09:26;102410.88;;;2.94;100.00
70053;BME280;57398;52.032;4.376;2024-03-06T06:12:15;102410.75;;;2.96;100.00
70053;BME280;57398;52.032;4.376;2024-03-06T06:15:05;102414.53;;;3.01;100.00
70053;BME280;57398;52.032;4.376;2024-03-06T06:17:54;102416.84;;;3.04;100.00
70053;BME280;57398;52.032;4.376;2024-03-06T06:20:42;102421.28;;;3.02;100.00
70053;BME280;57398;52.032;4.376;2024-03-06T06:23:30;102431.41;;;2.94;100.00
70053;BME280;57398;52.032;4.376;2024-03-06T06:26:19;102433.00;;;2.95;100.00
70053;BME280;57398;52.032;4.376;2024-03-06T06:29:07;102438.97;;;2.96;100.00
70053;BME280;57398;52.032;4.376;2024-03-06T06:31:57;102445.44;;;2.90;100.00
70053;BME280;57398;52.032;4.376;2024-03-06T06:34:45;102458.25;;;2.90;100.00
70053;BME280;57398;52.032;4.376;2024-03-06T06:37:33;102456.34;;;2.82;100.00
70053;BME280;57398;52.032;4.376;2024-03-06T06:40:21;102461.47;;;2.82;100.00
70053;BME280;57398;52.032;4.376;2024-03-06T06:43:10;102460.63;;;2.82;100.00
70053;BME280;57398;52.032;4.376;2024-03-06T06:45:59;102471.59;;;2.84;100.00
70053;BME280;57398;52.032;4.376;2024-03-06T06:48:53;102476.88;;;2.82;100.00
70053;BME280;57398;52.032;4.376;2024-03-06T06:51:41;102483.06;;;2.80;100.00
70053;BME280;57398;52.032;4.376;2024-03-06T06:54:29;102490.78;;;2.80;100.00
70053;BME280;57398;52.032;4.376;2024-03-06T06:57:18;102490.47;;;2.73;100.00
70053;BME280;57398;52.032;4.376;2024-03-06T07:00:08;102493.19;;;2.81;100.00
70053;BME280;57398;52.032;4.376;2024-03-06T07:02:58;102493.66;;;2.86;100.00
70053;BME280;57398;52.032;4.376;2024-03-06T07:05:48;102495.00;;;2.90;100.00
70053;BME280;57398;52.032;4.376;2024-03-06T07:08:36;102496.06;;;2.88;100.00
70053;BME280;57398;52.032;4.376;2024-03-06T07:11:25;102495.75;;;2.81;100.00
70053;BME280;57398;52.032;4.376;2024-03-06T07:14:14;102500.78;;;2.83;100.00
70053;BME280;57398;52.032;4.376;2024-03-06T07:17:02;102507.66;;;2.82;100.00
70053;BME280;57398;52.032;4.376;2024-03-06T07:19:51;102515.00;;;2.87;100.00
70053;BME280;57398;52.032;4.376;2024-03-06T07:22:41;102516.59;;;2.88;100.00
70053;BME280;57398;52.032;4.376;2024-03-06T07:25:29;102526.06;;;2.87;100.00
70053;BME280;57398;52.032;4.376;2024-03-06T07:28:17;102529.22;;;2.91;100.00
70053;BME280;57398;52.032;4.376;2024-03-06T07:31:07;102539.22;;;2.94;100.00
70053;BME280;57398;52.032;4.376;2024-03-06T07:33:55;102525.63;;;3.03;100.00
70053;BME280;57398;52.032;4.376;2024-03-06T07:36:43;102530.78;;;3.13;100.00
70053;BME280;57398;52.032;4.376;2024-03-06T07:39:34;102516.38;;;3.22;100.00
70053;BME280;57398;52.032;4.376;2024-03-06T07:42:22;102506.53;;;3.27;100.00
70053;BME280;57398;52.032;4.376;2024-03-06T07:45:10;102496.03;;;3.30;100.00
70053;BME280;57398;52.032;4.376;2024-03-06T07:47:59;102483.59;;;3.35;100.00
70053;BME280;57398;52.032;4.376;2024-03-06T07:50:47;102484.97;;;3.39;100.00
70053;BME280;57398;52.032;4.376;2024-03-06T07:53:35;102487.09;;;3.34;100.00
70053;BME280;57398;52.032;4.376;2024-03-06T07:56:26;102484.69;;;3.32;100.00
70053;BME280;57398;52.032;4.376;2024-03-06T07:59:15;102493.97;;;3.24;100.00
70053;BME280;57398;52.032;4.376;2024-03-06T08:02:04;102496.16;;;3.28;100.00
70053;BME280;57398;52.032;4.376;2024-03-06T08:04:53;102495.50;;;3.36;100.00
70053;BME280;57398;52.032;4.376;2024-03-06T08:07:42;102488.09;;;3.43;100.00
70053;BME280;57398;52.032;4.376;2024-03-06T08:10:31;102475.00;;;3.55;100.00
70053;BME280;57398;52.032;4.376;2024-03-06T08:13:21;102474.63;;;3.70;100.00
70053;BME280;57398;52.032;4.376;2024-03-06T08:16:10;102476.41;;;3.89;100.00
70053;BME280;57398;52.032;4.376;2024-03-06T08:18:58;102468.47;;;4.02;100.00
70053;BME280;57398;52.032;4.376;2024-03-06T08:21:46;102460.47;;;4.24;100.00
70053;BME280;57398;52.032;4.376;2024-03-06T08:24:35;102454.91;;;4.38;100.00
70053;BME280;57398;52.032;4.376;2024-03-06T08:27:23;102449.31;;;4.53;100.00
70053;BME280;57398;52.032;4.376;2024-03-06T08:30:13;102447.56;;;4.63;100.00
70053;BME280;57398;52.032;4.376;2024-03-06T08:33:01;102459.31;;;4.75;100.00
70053;BME280;57398;52.032;4.376;2024-03-06T08:35:49;102457.91;;;4.91;100.00
70053;BME280;57398;52.032;4.376;2024-03-06T08:38:37;102465.84;;;5.07;100.00
70053;BME280;57398;52.032;4.376;2024-03-06T08:41:27;102483.66;;;5.28;100.00
70053;BME280;57398;52.032;4.376;2024-03-06T08:44:15;102504.63;;;5.43;100.00
70053;BME280;57398;52.032;4.376;2024-03-06T08:47:05;102541.16;;;5.56;100.00
70053;BME280;57398;52.032;4.376;2024-03-06T08:49:53;102562.75;;;5.55;100.00
70053;BME280;57398;52.032;4.376;2024-03-06T08:52:42;102579.84;;;5.56;100.00
70053;BME280;57398;52.032;4.376;2024-03-06T08:55:30;102595.47;;;5.55;100.00
70053;BME280;57398;52.032;4.376;2024-03-06T08:58:18;102598.03;;;5.55;100.00
70053;BME280;57398;52.032;4.376;2024-03-06T09:01:07;102597.88;;;5.56;100.00
70053;BME280;57398;52.032;4.376;2024-03-06T09:03:57;102598.56;;;5.58;100.00
70053;BME280;57398;52.032;4.376;2024-03-06T09:06:45;102610.22;;;5.62;100.00
70053;BME280;57398;52.032;4.376;2024-03-06T09:09:33;102607.88;;;5.69;100.00
70053;BME280;57398;52.032;4.376;2024-03-06T09:12:22;102604.59;;;5.77;100.00
70053;BME280;57398;52.032;4.376;2024-03-06T09:15:10;102599.41;;;5.86;100.00
70053;BME280;57398;52.032;4.376;2024-03-06T09:17:59;102600.84;;;5.99;100.00
70053;BME280;57398;52.032;4.376;2024-03-06T09:20:48;102615.59;;;6.06;100.00
70053;BME280;57398;52.032;4.376;2024-03-06T09:23:37;102614.91;;;6.32;100.00
70053;BME280;57398;52.032;4.376;2024-03-06T09:26:25;102601.78;;;6.43;100.00
70053;BME280;57398;52.032;4.376;2024-03-06T09:29:14;102617.81;;;6.47;100.00
70053;BME280;57398;52.032;4.376;2024-03-06T09:32:02;102621.28;;;6.56;100.00
70053;BME280;57398;52.032;4.376;2024-03-06T09:34:50;102631.75;;;6.72;100.00
70053;BME280;57398;52.032;4.376;2024-03-06T09:37:40;102616.03;;;6.83;100.00
70053;BME280;57398;52.032;4.376;2024-03-06T09:40:30;102616.91;;;6.92;100.00
70053;BME280;57398;52.032;4.376;2024-03-06T09:43:18;102628.06;;;7.19;100.00
70053;BME280;57398;52.032;4.376;2024-03-06T09:46:07;102632.25;;;7.38;100.00
70053;BME280;57398;52.032;4.376;2024-03-06T09:48:55;102626.97;;;7.55;100.00
70053;BME280;57398;52.032;4.376;2024-03-06T09:51:45;102625.31;;;7.72;100.00
70053;BME280;57398;52.032;4.376;2024-03-06T09:54:34;102627.16;;;7.88;100.00
70053;BME280;57398;52.032;4.376;2024-03-06T09:57:23;102624.91;;;8.02;100.00
70053;BME280;57398;52.032;4.376;2024-03-06T10:00:12;102623.16;;;8.10;100.00
70053;BME280;57398;52.032;4.376;2024-03-06T10:03:03;102633.91;;;8.32;100.00
70053;BME280;57398;52.032;4.376;2024-03-06T10:05:52;102633.47;;;8.53;100.00
70053;BME280;57398;52.032;4.376;2024-03-06T10:08:42;102636.91;;;8.62;100.00
70053;BME280;57398;52.032;4.376;2024-03-06T10:11:40;102641.41;;;8.68;100.00
70053;BME280;57398;52.032;4.376;2024-03-06T10:14:30;102636.72;;;8.88;100.00
70053;BME280;57398;52.032;4.376;2024-03-06T10:17:20;102638.03;;;8.92;100.00
70053;BME280;57398;52.032;4.376;2024-03-06T10:20:17;102641.59;;;8.99;100.00
70053;BME280;57398;52.032;4.376;2024-03-06T10:23:07;102649.50;;;9.22;100.00
70053;BME280;57398;52.032;4.376;2024-03-06T10:25:56;102649.97;;;9.42;100.00
70053;BME280;57398;52.032;4.376;2024-03-06T10:28:45;102641.03;;;9.36;100.00
70053;BME280;57398;52.032;4.376;2024-03-06T10:31:34;102639.41;;;9.43;100.00
70053;BME280;57398;52.032;4.376;2024-03-06T10:34:23;102641.63;;;9.63;100.00
70053;BME280;57398;52.032;4.376;2024-03-06T10:37:11;102634.78;;;9.78;100.00
70053;BME280;57398;52.032;4.376;2024-03-06T10:40:02;102629.81;;;9.92;100.00
70053;BME280;57398;52.032;4.376;2024-03-06T10:42:52;102638.44;;;9.92;100.00
70053;BME280;57398;52.032;4.376;2024-03-06T10:45:46;102641.91;;;10.07;100.00
70053;BME280;57398;52.032;4.376;2024-03-06T10:48:36;102648.66;;;10.25;100.00
70053;BME280;57398;52.032;4.376;2024-03-06T10:51:26;102649.97;;;10.29;100.00
70053;BME280;57398;52.032;4.376;2024-03-06T10:54:16;102648.16;;;10.30;100.00
70053;BME280;57398;52.032;4.376;2024-03-06T10:57:05;102636.47;;;10.25;100.00
70053;BME280;57398;52.032;4.376;2024-03-06T10:59:54;102653.47;;;10.05;100.00
70053;BME280;57398;52.032;4.376;2024-03-06T11:02:51;102658.00;;;10.03;100.00
70053;BME280;57398;52.032;4.376;2024-03-06T11:05:42;102649.16;;;10.20;100.00
70053;BME280;57398;52.032;4.376;2024-03-06T11:08:30;102649.97;;;10.52;100.00
70053;BME280;57398;52.032;4.376;2024-03-06T11:11:21;102644.59;;;10.31;100.00
70053;BME280;57398;52.032;4.376;2024-03-06T11:14:09;102653.47;;;10.05;100.00
70053;BME280;57398;52.032;4.376;2024-03-06T11:17:02;102664.84;;;9.96;100.00
70053;BME280;57398;52.032;4.376;2024-03-06T11:20:25;102657.75;;;10.21;100.00
70053;BME280;57398;52.032;4.376;2024-03-06T11:23:20;102664.69;;;10.60;100.00
70053;BME280;57398;52.032;4.376;2024-03-06T11:26:12;102666.44;;;10.67;100.00
70053;BME280;57398;52.032;4.376;2024-03-06T11:29:00;102662.63;;;10.55;100.00
70053;BME280;57398;52.032;4.376;2024-03-06T11:31:59;102659.09;;;10.48;100.00
70053;BME280;57398;52.032;4.376;2024-03-06T11:34:49;102665.28;;;10.70;100.00
70053;BME280;57398;52.032;4.376;2024-03-06T11:37:46;102668.69;;;10.94;100.00
70053;BME280;57398;52.032;4.376;2024-03-06T11:40:43;102663.78;;;10.76;100.00
70053;BME280;57398;52.032;4.376;2024-03-06T11:43:31;102654.56;;;11.26;100.00
70053;BME280;57398;52.032;4.376;2024-03-06T11:46:20;102659.66;;;11.19;100.00
70053;BME280;57398;52.032;4.376;2024-03-06T11:49:15;102675.03;;;10.68;100.00
70053;BME280;57398;52.032;4.376;2024-03-06T11:52:05;102675.50;;;10.72;100.00
70053;BME280;57398;52.032;4.376;2024-03-06T11:54:56;102681.84;;;10.92;100.00
70053;BME280;57398;52.032;4.376;2024-03-06T11:57:46;102666.09;;;11.08;100.00
70053;BME280;57398;52.032;4.376;2024-03-06T12:00:34;102674.09;;;11.07;100.00
70053;BME280;57398;52.032;4.376;2024-03-06T12:03:22;102674.88;;;10.93;100.00
70053;BME280;57398;52.032;4.376;2024-03-06T12:06:12;102676.25;;;10.80;100.00
70053;BME280;57398;52.032;4.376;2024-03-06T12:09:02;102673.00;;;10.78;100.00
70053;BME280;57398;52.032;4.376;2024-03-06T12:11:52;102665.59;;;10.90;100.00
70053;BME280;57398;52.032;4.376;2024-03-06T12:14:40;102666.97;;;10.86;100.00
70053;BME280;57398;52.032;4.376;2024-03-06T12:17:29;102664.56;;;10.53;100.00
70053;BME280;57398;52.032;4.376;2024-03-06T12:20:18;102685.03;;;10.56;100.00
70053;BME280;57398;52.032;4.376;2024-03-06T12:23:06;102674.41;;;10.89;100.00
70053;BME280;57398;52.032;4.376;2024-03-06T12:26:05;102651.91;;;10.96;100.00
70053;BME280;57398;52.032;4.376;2024-03-06T12:29:05;102682.97;;;10.75;100.00
70053;BME280;57398;52.032;4.376;2024-03-06T12:31:53;102686.28;;;10.60;100.00
70053;BME280;57398;52.032;4.376;2024-03-06T12:34:44;102687.06;;;10.69;100.00
70053;BME280;57398;52.032;4.376;2024-03-06T12:37:32;102665.13;;;11.09;100.00
70053;BME280;57398;52.032;4.376;2024-03-06T12:40:22;102668.84;;;11.30;100.00
70053;BME280;57398;52.032;4.376;2024-03-06T12:43:10;102666.88;;;11.62;100.00
70053;BME280;57398;52.032;4.376;2024-03-06T12:46:00;102670.97;;;11.86;100.00
70053;BME280;57398;52.032;4.376;2024-03-06T12:48:51;102654.38;;;11.72;100.00
70053;BME280;57398;52.032;4.376;2024-03-06T12:51:40;102677.94;;;11.64;100.00
70053;BME280;57398;52.032;4.376;2024-03-06T12:54:28;102692.00;;;11.55;100.00
70053;BME280;57398;52.032;4.376;2024-03-06T12:57:16;102680.41;;;11.72;100.00
70053;BME280;57398;52.032;4.376;2024-03-06T13:00:05;102667.84;;;11.76;100.00
70053;BME280;57398;52.032;4.376;2024-03-06T13:03:05;102679.53;;;11.94;100.00
70053;BME280;57398;52.032;4.376;2024-03-06T13:05:53;102673.31;;;12.10;100.00
70053;BME280;57398;52.032;4.376;2024-03-06T13:08:41;102664.88;;;11.79;100.00
70053;BME280;57398;52.032;4.376;2024-03-06T13:11:30;102673.16;;;11.67;100.00
70053;BME280;57398;52.032;4.376;2024-03-06T13:14:18;102695.50;;;11.62;100.00
70053;BME280;57398;52.032;4.376;2024-03-06T13:17:07;102686.41;;;11.43;100.00
70053;BME280;57398;52.032;4.376;2024-03-06T13:19:57;102689.31;;;11.48;100.00
70053;BME280;57398;52.032;4.376;2024-03-06T13:22:45;102686.34;;;11.36;100.00
70053;BME280;57398;52.032;4.376;2024-03-06T13:25:33;102682.19;;;11.27;100.00
70053;BME280;57398;52.032;4.376;2024-03-06T13:28:22;102687.22;;;11.28;100.00
70053;BME280;57398;52.032;4.376;2024-03-06T13:31:10;102675.69;;;11.08;100.00
70053;BME280;57398;52.032;4.376;2024-03-06T13:33:59;102690.00;;;11.57;100.00
70053;BME280;57398;52.032;4.376;2024-03-06T13:36:49;102701.16;;;11.50;100.00
70053;BME280;57398;52.032;4.376;2024-03-06T13:39:37;102685.84;;;11.18;100.00
70053;BME280;57398;52.032;4.376;2024-03-06T13:42:26;102692.22;;;11.15;100.00
70053;BME280;57398;52.032;4.376;2024-03-06T13:45:14;102701.38;;;11.11;100.00
70053;BME280;57398;52.032;4.376;2024-03-06T13:48:04;102687.38;;;11.27;100.00
70053;BME280;57398;52.032;4.376;2024-03-06T13:51:02;102692.72;;;11.63;100.00
70053;BME280;57398;52.032;4.376;2024-03-06T13:53:52;102656.63;;;11.60;100.00
70053;BME280;57398;52.032;4.376;2024-03-06T13:56:40;102682.69;;;11.75;100.00
70053;BME280;57398;52.032;4.376;2024-03-06T13:59:30;102694.88;;;12.04;100.00
70053;BME280;57398;52.032;4.376;2024-03-06T14:02:19;102675.53;;;12.28;100.00
70053;BME280;57398;52.032;4.376;2024-03-06T14:05:08;102667.94;;;12.33;100.00
70053;BME280;57398;52.032;4.376;2024-03-06T14:07:56;102683.94;;;12.67;100.00
70053;BME280;57398;52.032;4.376;2024-03-06T14:10:45;102693.31;;;12.89;100.00
70053;BME280;57398;52.032;4.376;2024-03-06T14:13:33;102692.25;;;13.05;100.00
70053;BME280;57398;52.032;4.376;2024-03-06T14:16:22;102690.94;;;13.16;100.00
70053;BME280;57398;52.032;4.376;2024-03-06T14:19:10;102724.22;;;12.86;100.00
70053;BME280;57398;52.032;4.376;2024-03-06T14:21:58;102779.66;;;11.92;100.00
70053;BME280;57398;52.032;4.376;2024-03-06T14:24:50;102764.03;;;11.39;100.00
70053;BME280;57398;52.032;4.376;2024-03-06T14:27:40;102756.53;;;11.21;100.00
70053;BME280;57398;52.032;4.376;2024-03-06T14:30:28;102762.44;;;11.15;100.00
70053;BME280;57398;52.032;4.376;2024-03-06T14:33:16;102755.97;;;10.88;100.00
70053;BME280;57398;52.032;4.376;2024-03-06T14:36:05;102761.75;;;10.98;100.00
70053;BME280;57398;52.032;4.376;2024-03-06T14:38:54;102762.00;;;11.11;100.00
70053;BME280;57398;52.032;4.376;2024-03-06T14:41:42;102749.84;;;10.81;100.00
70053;BME280;57398;52.032;4.376;2024-03-06T14:44:33;102764.53;;;10.42;100.00
70053;BME280;57398;52.032;4.376;2024-03-06T14:47:21;102773.03;;;10.12;100.00